sensor_id;sensor_type;location;lat;lon;timestamp;temperature;humidity
24860;DHT22;12936;52.006;4.350;2024-03-17T00:02:07;9.90;99.90
24860;DHT22;12936;52.006;4.350;2024-03-17T00:04:34;9.90;99.90
24860;DHT22;12936;52.006;4.350;2024-03-17T00:07:01;9.80;99.90
24860;DHT22;12936;52.006;4.350;2024-03-17T00:09:29;9.90;99.90
24860;DHT22;12936;52.006;4.350;2024-03-17T00:11:57;9.80;99.90
24860;DHT22;12936;52.006;4.350;2024-03-17T00:14:30;9.80;99.90
24860;DHT22;12936;52.006;4.350;2024-03-17T00:17:00;9.80;99.90
24860;DHT22;12936;52.006;4.350;2024-03-17T00:19:49;9.80;99.90
24860;DHT22;12936;52.006;4.350;2024-03-17T00:22:15;9.80;99.90
24860;DHT22;12936;52.006;4.350;2024-03-17T00:24:46;9.80;99.90
24860;DHT22;12936;52.006;4.350;2024-03-17T00:27:13;9.80;99.90
24860;DHT22;12936;52.006;4.350;2024-03-17T00:29:45;9.80;99.90
24860;DHT22;12936;52.006;4.350;2024-03-17T00:32:12;9.70;99.90
24860;DHT22;12936;52.006;4.350;2024-03-17T00:34:41;9.80;99.90
24860;DHT22;12936;52.006;4.350;2024-03-17T00:37:07;9.80;99.90
24860;DHT22;12936;52.006;4.350;2024-03-17T00:39:35;9.80;99.90
24860;DHT22;12936;52.006;4.350;2024-03-17T00:42:16;9.80;99.90
24860;DHT22;12936;52.006;4.350;2024-03-17T00:44:42;9.80;99.90
24860;DHT22;12936;52.006;4.350;2024-03-17T00:47:10;9.80;99.90
24860;DHT22;12936;52.006;4.350;2024-03-17T00:49:36;9.80;99.90
24860;DHT22;12936;52.006;4.350;2024-03-17T00:52:04;9.80;99.90
24860;DHT22;12936;52.006;4.350;2024-03-17T00:54:30;9.80;99.90
24860;DHT22;12936;52.006;4.350;2024-03-17T00:56:59;9.80;99.90
24860;DHT22;12936;52.006;4.350;2024-03-17T00:59:27;9.70;99.90
24860;DHT22;12936;52.006;4.350;2024-03-17T01:01:56;9.90;99.90
24860;DHT22;12936;52.006;4.350;2024-03-17T01:04:22;9.80;99.90
24860;DHT22;12936;52.006;4.350;2024-03-17T01:06:50;9.80;99.90
24860;DHT22;12936;52.006;4.350;2024-03-17T01:09:19;9.80;99.90
24860;DHT22;12936;52.006;4.350;2024-03-17T01:11:47;9.80;99.90
24860;DHT22;12936;52.006;4.350;2024-03-17T01:14:14;9.70;99.90
24860;DHT22;12936;52.006;4.350;2024-03-17T01:16:46;9.70;99.90
24860;DHT22;12936;52.006;4.350;2024-03-17T01:19:13;9.60;99.90
24860;DHT22;12936;52.006;4.350;2024-03-17T01:21:40;9.70;99.90
24860;DHT22;12936;52.006;4.350;2024-03-17T01:24:07;9.70;99.90
24860;DHT22;12936;52.006;4.350;2024-03-17T01:26:58;9.70;99.90
24860;DHT22;12936;52.006;4.350;2024-03-17T01:29:25;9.60;99.90
24860;DHT22;12936;52.006;4.350;2024-03-17T01:31:54;9.60;99.90
24860;DHT22;12936;52.006;4.350;2024-03-17T01:34:40;9.60;99.90
24860;DHT22;12936;52.006;4.350;2024-03-17T01:37:09;9.60;99.90
24860;DHT22;12936;52.006;4.350;2024-03-17T01:39:35;9.50;99.90
24860;DHT22;12936;52.006;4.350;2024-03-17T01:42:04;9.50;99.90
24860;DHT22;12936;52.006;4.350;2024-03-17T01:44:31;9.50;99.90
24860;DHT22;12936;52.006;4.350;2024-03-17T01:47:22;9.50;99.90
24860;DHT22;12936;52.006;4.350;2024-03-17T01:49:51;9.50;99.90
24860;DHT22;12936;52.006;4.350;2024-03-17T01:52:19;9.50;99.90
24860;DHT22;12936;52.006;4.350;2024-03-17T01:54:47;9.50;99.90
24860;DHT22;12936;52.006;4.350;2024-03-17T01:57:14;9.40;99.90
24860;DHT22;12936;52.006;4.350;2024-03-17T01:59:43;9.40;99.90
24860;DHT22;12936;52.006;4.350;2024-03-17T02:02:13;9.40;99.90
24860;DHT22;12936;52.006;4.350;2024-03-17T02:04:40;9.40;99.90
24860;DHT22;12936;52.006;4.350;2024-03-17T02:07:07;9.40;99.90
24860;DHT22;12936;52.006;4.350;2024-03-17T02:09:41;9.30;99.90
24860;DHT22;12936;52.006;4.350;2024-03-17T02:12:10;9.30;99.90
24860;DHT22;12936;52.006;4.350;2024-03-17T02:14:38;9.30;99.90
24860;DHT22;12936;52.006;4.350;2024-03-17T02:17:12;9.30;99.90
24860;DHT22;12936;52.006;4.350;2024-03-17T02:19:55;9.30;99.90
24860;DHT22;12936;52.006;4.350;2024-03-17T02:22:26;9.30;99.90
24860;DHT22;12936;52.006;4.350;2024-03-17T02:24:55;9.30;99.90
24860;DHT22;12936;52.006;4.350;2024-03-17T02:27:23;9.30;99.90
24860;DHT22;12936;52.006;4.350;2024-03-17T02:29:50;9.40;99.90
24860;DHT22;12936;52.006;4.350;2024-03-17T02:32:18;9.30;99.90
24860;DHT22;12936;52.006;4.350;2024-03-17T02:34:51;9.40;99.90
24860;DHT22;12936;52.006;4.350;2024-03-17T02:37:18;9.40;99.90
24860;DHT22;12936;52.006;4.350;2024-03-17T02:39:46;9.40;99.90
24860;DHT22;12936;52.006;4.350;2024-03-17T02:42:19;9.40;99.90
24860;DHT22;12936;52.006;4.350;2024-03-17T02:44:50;9.40;99.90
24860;DHT22;12936;52.006;4.350;2024-03-17T02:47:17;9.50;99.90
24860;DHT22;12936;52.006;4.350;2024-03-17T02:49:47;9.40;99.90
24860;DHT22;12936;52.006;4.350;2024-03-17T02:52:16;9.50;99.90
24860;DHT22;12936;52.006;4.350;2024-03-17T02:54:46;9.50;99.90
24860;DHT22;12936;52.006;4.350;2024-03-17T02:57:13;9.50;99.90
24860;DHT22;12936;52.006;4.350;2024-03-17T02:59:41;9.60;99.90
24860;DHT22;12936;52.006;4.350;2024-03-17T03:02:09;9.50;99.90
24860;DHT22;12936;52.006;4.350;2024-03-17T03:04:36;9.60;99.90
24860;DHT22;12936;52.006;4.350;2024-03-17T03:07:04;9.50;99.90
24860;DHT22;12936;52.006;4.350;2024-03-17T03:09:32;9.60;99.90
24860;DHT22;12936;52.006;4.350;2024-03-17T03:12:02;9.60;99.90
24860;DHT22;12936;52.006;4.350;2024-03-17T03:14:30;9.60;99.90
24860;DHT22;12936;52.006;4.350;2024-03-17T03:16:58;9.60;99.90
24860;DHT22;12936;52.006;4.350;2024-03-17T03:19:26;9.70;99.90
24860;DHT22;12936;52.006;4.350;2024-03-17T03:21:55;9.70;99.90
24860;DHT22;12936;52.006;4.350;2024-03-17T03:24:25;9.70;99.90
24860;DHT22;12936;52.006;4.350;2024-03-17T03:26:53;9.70;99.90
24860;DHT22;12936;52.006;4.350;2024-03-17T03:29:26;9.70;99.90
24860;DHT22;12936;52.006;4.350;2024-03-17T03:32:15;9.70;99.90
24860;DHT22;12936;52.006;4.350;2024-03-17T03:34:47;9.80;99.90
24860;DHT22;12936;52.006;4.350;2024-03-17T03:37:15;9.80;99.90
24860;DHT22;12936;52.006;4.350;2024-03-17T03:39:42;9.80;99.90
24860;DHT22;12936;52.006;4.350;2024-03-17T03:42:09;9.80;99.90
24860;DHT22;12936;52.006;4.350;2024-03-17T03:44:40;9.70;99.90
24860;DHT22;12936;52.006;4.350;2024-03-17T03:47:09;9.70;99.90
24860;DHT22;12936;52.006;4.350;2024-03-17T03:49:36;9.80;99.90
24860;DHT22;12936;52.006;4.350;2024-03-17T03:52:05;9.70;99.90
24860;DHT22;12936;52.006;4.350;2024-03-17T03:54:33;9.80;99.90
24860;DHT22;12936;52.006;4.350;2024-03-17T03:57:02;9.70;99.90
24860;DHT22;12936;52.006;4.350;2024-03-17T03:59:29;9.80;99.90
24860;DHT22;12936;52.006;4.350;2024-03-17T04:02:01;9.80;99.90
24860;DHT22;12936;52.006;4.350;2024-03-17T04:04:29;9.80;99.90
24860;DHT22;12936;52.006;4.350;2024-03-17T04:07:17;9.70;99.90
24860;DHT22;12936;52.006;4.350;2024-03-17T04:09:49;9.70;99.90
24860;DHT22;12936;52.006;4.350;2024-03-17T04:12:17;9.70;99.90
24860;DHT22;12936;52.006;4.350;2024-03-17T04:14:45;9.70;99.90
24860;DHT22;12936;52.006;4.350;2024-03-17T04:17:19;9.70;99.90
24860;DHT22;12936;52.006;4.350;2024-03-17T04:19:48;9.70;99.90
24860;DHT22;12936;52.006;4.350;2024-03-17T04:22:20;9.70;99.90
24860;DHT22;12936;52.006;4.350;2024-03-17T04:24:49;9.80;99.90
24860;DHT22;12936;52.006;4.350;2024-03-17T04:27:21;9.70;99.90
24860;DHT22;12936;52.006;4.350;2024-03-17T04:29:53;9.70;99.90
24860;DHT22;12936;52.006;4.350;2024-03-17T04:32:24;9.70;99.90
24860;DHT22;12936;52.006;4.350;2024-03-17T04:34:54;9.70;99.90
24860;DHT22;12936;52.006;4.350;2024-03-17T04:37:23;9.70;99.90
24860;DHT22;12936;52.006;4.350;2024-03-17T04:39:53;9.70;99.90
24860;DHT22;12936;52.006;4.350;2024-03-17T04:42:25;9.70;99.90
24860;DHT22;12936;52.006;4.350;2024-03-17T04:44:53;9.70;99.90
24860;DHT22;12936;52.006;4.350;2024-03-17T04:47:20;9.70;99.90
24860;DHT22;12936;52.006;4.350;2024-03-17T04:49:51;9.70;99.90
24860;DHT22;12936;52.006;4.350;2024-03-17T04:52:19;9.70;99.90
24860;DHT22;12936;52.006;4.350;2024-03-17T04:54:46;9.70;99.90
24860;DHT22;12936;52.006;4.350;2024-03-17T04:57:14;9.60;99.90
24860;DHT22;12936;52.006;4.350;2024-03-17T04:59:42;9.60;99.90
24860;DHT22;12936;52.006;4.350;2024-03-17T05:02:09;9.60;99.90
24860;DHT22;12936;52.006;4.350;2024-03-17T05:04:36;9.70;99.90
24860;DHT22;12936;52.006;4.350;2024-03-17T05:07:25;9.60;99.90
24860;DHT22;12936;52.006;4.350;2024-03-17T05:09:53;9.60;99.90
24860;DHT22;12936;52.006;4.350;2024-03-17T05:12:22;9.60;99.90
24860;DHT22;12936;52.006;4.350;2024-03-17T05:14:50;9.60;99.90
24860;DHT22;12936;52.006;4.350;2024-03-17T05:17:19;9.60;99.90
24860;DHT22;12936;52.006;4.350;2024-03-17T05:19:46;9.60;99.90
24860;DHT22;12936;52.006;4.350;2024-03-17T05:22:14;9.60;99.90
24860;DHT22;12936;52.006;4.350;2024-03-17T05:24:43;9.60;99.90
24860;DHT22;12936;52.006;4.350;2024-03-17T05:27:10;9.60;99.90
24860;DHT22;12936;52.006;4.350;2024-03-17T05:29:46;9.60;99.90
24860;DHT22;12936;52.006;4.350;2024-03-17T05:32:13;9.60;99.90
24860;DHT22;12936;52.006;4.350;2024-03-17T05:34:40;9.60;99.90
24860;DHT22;12936;52.006;4.350;2024-03-17T05:37:08;9.60;99.90
24860;DHT22;12936;52.006;4.350;2024-03-17T05:39:36;9.60;99.90
24860;DHT22;12936;52.006;4.350;2024-03-17T05:42:09;9.60;99.90
24860;DHT22;12936;52.006;4.350;2024-03-17T05:44:39;9.60;99.90
24860;DHT22;12936;52.006;4.350;2024-03-17T05:47:17;9.60;99.90
24860;DHT22;12936;52.006;4.350;2024-03-17T05:49:45;9.60;99.90
24860;DHT22;12936;52.006;4.350;2024-03-17T05:52:34;9.60;99.90
24860;DHT22;12936;52.006;4.350;2024-03-17T05:55:01;9.60;99.90
24860;DHT22;12936;52.006;4.350;2024-03-17T05:57:30;9.50;99.90
24860;DHT22;12936;52.006;4.350;2024-03-17T05:59:58;9.60;99.90
24860;DHT22;12936;52.006;4.350;2024-03-17T06:02:25;9.60;99.90
24860;DHT22;12936;52.006;4.350;2024-03-17T06:04:55;9.60;99.90
24860;DHT22;12936;52.006;4.350;2024-03-17T06:07:43;9.60;99.90
24860;DHT22;12936;52.006;4.350;2024-03-17T06:10:13;9.60;99.90
24860;DHT22;12936;52.006;4.350;2024-03-17T06:12:42;9.60;99.90
24860;DHT22;12936;52.006;4.350;2024-03-17T06:15:11;9.60;99.90
24860;DHT22;12936;52.006;4.350;2024-03-17T06:17:42;9.60;99.90
24860;DHT22;12936;52.006;4.350;2024-03-17T06:20:11;9.60;99.90
24860;DHT22;12936;52.006;4.350;2024-03-17T06:22:40;9.60;99.90
24860;DHT22;12936;52.006;4.350;2024-03-17T06:25:09;9.70;99.90
24860;DHT22;12936;52.006;4.350;2024-03-17T06:27:37;9.70;99.90
24860;DHT22;12936;52.006;4.350;2024-03-17T06:30:12;9.70;99.90
24860;DHT22;12936;52.006;4.350;2024-03-17T06:32:42;9.70;99.90
24860;DHT22;12936;52.006;4.350;2024-03-17T06:35:11;9.80;99.90
24860;DHT22;12936;52.006;4.350;2024-03-17T06:37:41;9.80;99.90
24860;DHT22;12936;52.006;4.350;2024-03-17T06:40:13;9.80;99.90
24860;DHT22;12936;52.006;4.350;2024-03-17T06:42:41;9.90;99.90
24860;DHT22;12936;52.006;4.350;2024-03-17T06:45:09;9.90;99.90
24860;DHT22;12936;52.006;4.350;2024-03-17T06:47:40;10.00;99.90
24860;DHT22;12936;52.006;4.350;2024-03-17T06:50:08;10.00;99.90
24860;DHT22;12936;52.006;4.350;2024-03-17T06:52:36;10.00;99.90
24860;DHT22;12936;52.006;4.350;2024-03-17T06:55:04;10.00;99.90
24860;DHT22;12936;52.006;4.350;2024-03-17T06:57:32;10.10;99.90
24860;DHT22;12936;52.006;4.350;2024-03-17T07:00:00;10.10;99.90
24860;DHT22;12936;52.006;4.350;2024-03-17T07:02:31;10.20;99.90
24860;DHT22;12936;52.006;4.350;2024-03-17T07:05:01;10.20;99.90
24860;DHT22;12936;52.006;4.350;2024-03-17T07:07:29;10.30;99.90
24860;DHT22;12936;52.006;4.350;2024-03-17T07:09:56;10.30;99.90
24860;DHT22;12936;52.006;4.350;2024-03-17T07:12:24;10.30;99.90
24860;DHT22;12936;52.006;4.350;2024-03-17T07:14:51;10.40;99.90
24860;DHT22;12936;52.006;4.350;2024-03-17T07:17:18;10.50;99.90
24860;DHT22;12936;52.006;4.350;2024-03-17T07:19:45;10.40;99.90
24860;DHT22;12936;52.006;4.350;2024-03-17T07:22:14;10.50;99.90
24860;DHT22;12936;52.006;4.350;2024-03-17T07:24:41;10.50;99.90
24860;DHT22;12936;52.006;4.350;2024-03-17T07:27:10;10.60;99.90
24860;DHT22;12936;52.006;4.350;2024-03-17T07:29:39;10.60;99.90
24860;DHT22;12936;52.006;4.350;2024-03-17T07:32:07;10.60;99.90
24860;DHT22;12936;52.006;4.350;2024-03-17T07:34:34;10.60;99.90
24860;DHT22;12936;52.006;4.350;2024-03-17T07:37:02;10.70;99.90
24860;DHT22;12936;52.006;4.350;2024-03-17T07:39:31;10.70;99.90
24860;DHT22;12936;52.006;4.350;2024-03-17T07:41:59;10.70;99.90
24860;DHT22;12936;52.006;4.350;2024-03-17T07:44:27;10.70;99.90
24860;DHT22;12936;52.006;4.350;2024-03-17T07:46:59;10.80;99.90
24860;DHT22;12936;52.006;4.350;2024-03-17T07:49:26;10.80;99.90
24860;DHT22;12936;52.006;4.350;2024-03-17T07:51:53;10.80;99.90
24860;DHT22;12936;52.006;4.350;2024-03-17T07:54:21;10.90;99.90
24860;DHT22;12936;52.006;4.350;2024-03-17T07:56:49;10.90;99.90
24860;DHT22;12936;52.006;4.350;2024-03-17T07:59:16;10.90;99.90
24860;DHT22;12936;52.006;4.350;2024-03-17T08:01:44;10.90;99.90
24860;DHT22;12936;52.006;4.350;2024-03-17T08:04:32;10.90;99.90
24860;DHT22;12936;52.006;4.350;2024-03-17T08:06:59;10.90;99.90
24860;DHT22;12936;52.006;4.350;2024-03-17T08:09:29;10.90;99.90
24860;DHT22;12936;52.006;4.350;2024-03-17T08:11:58;10.90;99.90
24860;DHT22;12936;52.006;4.350;2024-03-17T08:14:26;10.90;99.90
24860;DHT22;12936;52.006;4.350;2024-03-17T08:16:53;10.90;99.90
24860;DHT22;12936;52.006;4.350;2024-03-17T08:19:20;10.90;99.90
24860;DHT22;12936;52.006;4.350;2024-03-17T08:21:48;11.00;99.90
24860;DHT22;12936;52.006;4.350;2024-03-17T08:24:16;10.90;99.90
24860;DHT22;12936;52.006;4.350;2024-03-17T08:26:44;10.90;99.90
24860;DHT22;12936;52.006;4.350;2024-03-17T08:29:13;11.00;99.90
24860;DHT22;12936;52.006;4.350;2024-03-17T08:31:41;11.00;99.90
24860;DHT22;12936;52.006;4.350;2024-03-17T08:34:11;11.00;99.90
24860;DHT22;12936;52.006;4.350;2024-03-17T08:36:38;11.00;99.90
24860;DHT22;12936;52.006;4.350;2024-03-17T08:39:06;11.10;99.90
24860;DHT22;12936;52.006;4.350;2024-03-17T08:41:47;11.10;99.90
24860;DHT22;12936;52.006;4.350;2024-03-17T08:44:16;11.10;99.90
24860;DHT22;12936;52.006;4.350;2024-03-17T08:46:43;11.20;99.90
24860;DHT22;12936;52.006;4.350;2024-03-17T08:49:13;11.20;99.90
24860;DHT22;12936;52.006;4.350;2024-03-17T08:51:42;11.30;99.90
24860;DHT22;12936;52.006;4.350;2024-03-17T08:54:09;11.30;99.90
24860;DHT22;12936;52.006;4.350;2024-03-17T08:56:36;11.40;99.90
24860;DHT22;12936;52.006;4.350;2024-03-17T08:59:04;11.50;99.90
24860;DHT22;12936;52.006;4.350;2024-03-17T09:01:33;11.50;99.90
24860;DHT22;12936;52.006;4.350;2024-03-17T09:04:02;11.60;99.90
24860;DHT22;12936;52.006;4.350;2024-03-17T09:06:29;11.70;99.90
24860;DHT22;12936;52.006;4.350;2024-03-17T09:09:00;11.70;99.90
24860;DHT22;12936;52.006;4.350;2024-03-17T09:11:29;11.80;99.90
24860;DHT22;12936;52.006;4.350;2024-03-17T09:13:58;12.00;99.90
24860;DHT22;12936;52.006;4.350;2024-03-17T09:16:26;12.10;99.90
24860;DHT22;12936;52.006;4.350;2024-03-17T09:18:55;12.10;99.90
24860;DHT22;12936;52.006;4.350;2024-03-17T09:21:23;12.10;99.90
24860;DHT22;12936;52.006;4.350;2024-03-17T09:23:50;12.20;99.90
24860;DHT22;12936;52.006;4.350;2024-03-17T09:26:20;12.30;99.90
24860;DHT22;12936;52.006;4.350;2024-03-17T09:28:48;12.30;99.90
24860;DHT22;12936;52.006;4.350;2024-03-17T09:31:15;12.40;99.90
24860;DHT22;12936;52.006;4.350;2024-03-17T09:33:42;12.40;99.90
24860;DHT22;12936;52.006;4.350;2024-03-17T09:36:12;12.50;99.90
24860;DHT22;12936;52.006;4.350;2024-03-17T09:38:40;12.60;99.90
24860;DHT22;12936;52.006;4.350;2024-03-17T09:41:07;12.70;99.90
24860;DHT22;12936;52.006;4.350;2024-03-17T09:43:35;12.80;99.90
24860;DHT22;12936;52.006;4.350;2024-03-17T09:46:03;12.90;99.90
24860;DHT22;12936;52.006;4.350;2024-03-17T09:48:31;12.90;99.90
24860;DHT22;12936;52.006;4.350;2024-03-17T09:50:59;13.00;99.90
24860;DHT22;12936;52.006;4.350;2024-03-17T09:53:29;13.00;99.90
24860;DHT22;12936;52.006;4.350;2024-03-17T09:55:58;13.10;99.90
24860;DHT22;12936;52.006;4.350;2024-03-17T09:58:26;13.20;99.90
24860;DHT22;12936;52.006;4.350;2024-03-17T10:00:53;13.30;99.90
24860;DHT22;12936;52.006;4.350;2024-03-17T10:03:42;13.30;99.90
24860;DHT22;12936;52.006;4.350;2024-03-17T10:06:11;13.40;99.90
24860;DHT22;12936;52.006;4.350;2024-03-17T10:08:55;13.50;99.90
24860;DHT22;12936;52.006;4.350;2024-03-17T10:11:23;13.60;99.90
24860;DHT22;12936;52.006;4.350;2024-03-17T10:13:59;13.60;99.90
24860;DHT22;12936;52.006;4.350;2024-03-17T10:16:28;13.70;99.90
24860;DHT22;12936;52.006;4.350;2024-03-17T10:19:06;13.80;99.90
24860;DHT22;12936;52.006;4.350;2024-03-17T10:21:36;13.80;99.90
24860;DHT22;12936;52.006;4.350;2024-03-17T10:24:09;13.90;99.90
24860;DHT22;12936;52.006;4.350;2024-03-17T10:26:41;14.10;99.90
24860;DHT22;12936;52.006;4.350;2024-03-17T10:29:21;14.10;99.90
24860;DHT22;12936;52.006;4.350;2024-03-17T10:31:51;14.20;99.90
24860;DHT22;12936;52.006;4.350;2024-03-17T10:34:19;14.20;99.90
24860;DHT22;12936;52.006;4.350;2024-03-17T10:36:46;14.30;99.90
24860;DHT22;12936;52.006;4.350;2024-03-17T10:39:25;14.30;99.90
24860;DHT22;12936;52.006;4.350;2024-03-17T10:42:00;14.30;99.90
24860;DHT22;12936;52.006;4.350;2024-03-17T10:44:28;14.30;99.90
24860;DHT22;12936;52.006;4.350;2024-03-17T10:46:57;14.30;99.90
24860;DHT22;12936;52.006;4.350;2024-03-17T10:49:30;14.30;99.90
24860;DHT22;12936;52.006;4.350;2024-03-17T10:52:00;14.30;99.90
24860;DHT22;12936;52.006;4.350;2024-03-17T10:54:29;14.20;99.90
24860;DHT22;12936;52.006;4.350;2024-03-17T10:57:07;14.20;99.90
24860;DHT22;12936;52.006;4.350;2024-03-17T10:59:40;14.20;99.90
24860;DHT22;12936;52.006;4.350;2024-03-17T11:02:20;14.10;99.90
24860;DHT22;12936;52.006;4.350;2024-03-17T11:04:51;14.00;99.90
24860;DHT22;12936;52.006;4.350;2024-03-17T11:07:22;14.00;99.90
24860;DHT22;12936;52.006;4.350;2024-03-17T11:09:52;14.00;99.90
24860;DHT22;12936;52.006;4.350;2024-03-17T11:12:53;13.90;99.90
24860;DHT22;12936;52.006;4.350;2024-03-17T11:15:47;13.90;99.90
24860;DHT22;12936;52.006;4.350;2024-03-17T11:18:39;13.90;99.90
24860;DHT22;12936;52.006;4.350;2024-03-17T11:21:21;13.80;99.90
24860;DHT22;12936;52.006;4.350;2024-03-17T11:24:19;13.80;99.90
24860;DHT22;12936;52.006;4.350;2024-03-17T11:26:54;13.90;99.90
24860;DHT22;12936;52.006;4.350;2024-03-17T11:29:28;13.90;99.90
24860;DHT22;12936;52.006;4.350;2024-03-17T11:32:24;13.90;99.90
24860;DHT22;12936;52.006;4.350;2024-03-17T11:35:17;13.80;99.90
24860;DHT22;12936;52.006;4.350;2024-03-17T11:37:50;13.80;99.90
24860;DHT22;12936;52.006;4.350;2024-03-17T11:40:24;13.90;99.90
24860;DHT22;12936;52.006;4.350;2024-03-17T11:43:03;13.90;99.90
24860;DHT22;12936;52.006;4.350;2024-03-17T11:45:32;13.90;99.90
24860;DHT22;12936;52.006;4.350;2024-03-17T11:48:20;14.00;99.90
24860;DHT22;12936;52.006;4.350;2024-03-17T11:50:50;14.00;99.90
24860;DHT22;12936;52.006;4.350;2024-03-17T11:53:17;14.00;99.90
24860;DHT22;12936;52.006;4.350;2024-03-17T11:55:49;14.10;99.90
24860;DHT22;12936;52.006;4.350;2024-03-17T11:58:29;14.10;99.90
24860;DHT22;12936;52.006;4.350;2024-03-17T12:00:59;14.20;99.90
24860;DHT22;12936;52.006;4.350;2024-03-17T12:06:54;14.30;99.90
24860;DHT22;12936;52.006;4.350;2024-03-17T12:09:23;14.40;99.90
24860;DHT22;12936;52.006;4.350;2024-03-17T12:11:59;14.40;99.90
24860;DHT22;12936;52.006;4.350;2024-03-17T12:14:30;14.50;99.90
24860;DHT22;12936;52.006;4.350;2024-03-17T12:17:00;14.60;99.90
24860;DHT22;12936;52.006;4.350;2024-03-17T12:19:29;14.60;99.90
24860;DHT22;12936;52.006;4.350;2024-03-17T12:22:03;14.70;99.90
24860;DHT22;12936;52.006;4.350;2024-03-17T12:24:31;14.80;99.90
24860;DHT22;12936;52.006;4.350;2024-03-17T12:27:01;14.90;99.90
24860;DHT22;12936;52.006;4.350;2024-03-17T12:29:31;14.90;99.90
24860;DHT22;12936;52.006;4.350;2024-03-17T12:32:04;14.90;99.90
24860;DHT22;12936;52.006;4.350;2024-03-17T12:34:57;15.00;99.90
24860;DHT22;12936;52.006;4.350;2024-03-17T12:37:24;15.00;99.90
24860;DHT22;12936;52.006;4.350;2024-03-17T12:40:00;15.10;99.90
24860;DHT22;12936;52.006;4.350;2024-03-17T12:42:30;15.10;99.90
24860;DHT22;12936;52.006;4.350;2024-03-17T12:45:26;15.20;99.90
24860;DHT22;12936;52.006;4.350;2024-03-17T12:48:13;15.30;99.90
24860;DHT22;12936;52.006;4.350;2024-03-17T12:50:59;15.40;99.90
24860;DHT22;12936;52.006;4.350;2024-03-17T12:53:36;15.50;99.90
24860;DHT22;12936;52.006;4.350;2024-03-17T12:56:27;15.50;99.90
24860;DHT22;12936;52.006;4.350;2024-03-17T13:06:25;15.70;99.90
24860;DHT22;12936;52.006;4.350;2024-03-17T13:09:22;15.80;99.90
24860;DHT22;12936;52.006;4.350;2024-03-17T13:11:55;15.90;99.90
24860;DHT22;12936;52.006;4.350;2024-03-17T13:14:23;15.90;99.90
24860;DHT22;12936;52.006;4.350;2024-03-17T13:16:50;16.00;99.90
24860;DHT22;12936;52.006;4.350;2024-03-17T13:19:22;16.10;99.90
24860;DHT22;12936;52.006;4.350;2024-03-17T13:21:51;16.10;99.90
24860;DHT22;12936;52.006;4.350;2024-03-17T13:24:18;16.10;99.90
24860;DHT22;12936;52.006;4.350;2024-03-17T13:26:46;16.20;99.90
24860;DHT22;12936;52.006;4.350;2024-03-17T13:29:16;16.20;99.90
24860;DHT22;12936;52.006;4.350;2024-03-17T13:31:44;16.10;99.90
24860;DHT22;12936;52.006;4.350;2024-03-17T13:34:13;16.10;99.90
24860;DHT22;12936;52.006;4.350;2024-03-17T13:36:41;16.10;99.90
24860;DHT22;12936;52.006;4.350;2024-03-17T13:39:11;16.10;99.90
24860;DHT22;12936;52.006;4.350;2024-03-17T13:41:40;16.00;99.90
24860;DHT22;12936;52.006;4.350;2024-03-17T13:44:07;16.00;99.90
24860;DHT22;12936;52.006;4.350;2024-03-17T13:46:37;16.00;99.90
24860;DHT22;12936;52.006;4.350;2024-03-17T13:49:07;16.00;99.90
24860;DHT22;12936;52.006;4.350;2024-03-17T13:51:36;16.00;99.90
24860;DHT22;12936;52.006;4.350;2024-03-17T13:54:04;15.90;99.90
24860;DHT22;12936;52.006;4.350;2024-03-17T13:56:33;15.90;99.90
24860;DHT22;12936;52.006;4.350;2024-03-17T13:59:01;15.90;99.90
24860;DHT22;12936;52.006;4.350;2024-03-17T14:01:49;15.90;99.90
24860;DHT22;12936;52.006;4.350;2024-03-17T14:04:17;15.90;99.90
24860;DHT22;12936;52.006;4.350;2024-03-17T14:06:45;15.90;99.90
24860;DHT22;12936;52.006;4.350;2024-03-17T14:09:15;15.90;99.90
24860;DHT22;12936;52.006;4.350;2024-03-17T14:11:45;15.90;99.90
24860;DHT22;12936;52.006;4.350;2024-03-17T14:14:16;15.90;99.90
24860;DHT22;12936;52.006;4.350;2024-03-17T14:16:44;15.90;99.90
24860;DHT22;12936;52.006;4.350;2024-03-17T14:19:11;15.90;99.90
24860;DHT22;12936;52.006;4.350;2024-03-17T14:21:39;15.90;99.90
24860;DHT22;12936;52.006;4.350;2024-03-17T14:24:07;15.90;99.90
24860;DHT22;12936;52.006;4.350;2024-03-17T14:26:36;15.90;99.90
24860;DHT22;12936;52.006;4.350;2024-03-17T14:29:08;15.80;99.90
24860;DHT22;12936;52.006;4.350;2024-03-17T14:31:35;15.80;99.90
24860;DHT22;12936;52.006;4.350;2024-03-17T14:34:04;15.70;99.90
24860;DHT22;12936;52.006;4.350;2024-03-17T14:36:32;15.70;99.90
24860;DHT22;12936;52.006;4.350;2024-03-17T14:38:59;15.70;99.90
24860;DHT22;12936;52.006;4.350;2024-03-17T14:41:28;15.60;99.90
24860;DHT22;12936;52.006;4.350;2024-03-17T14:43:57;15.50;99.90
24860;DHT22;12936;52.006;4.350;2024-03-17T14:46:26;15.50;99.90
24860;DHT22;12936;52.006;4.350;2024-03-17T14:48:53;15.50;99.90
24860;DHT22;12936;52.006;4.350;2024-03-17T14:51:21;15.40;99.90
24860;DHT22;12936;52.006;4.350;2024-03-17T14:53:48;15.40;99.90
24860;DHT22;12936;52.006;4.350;2024-03-17T14:56:18;15.40;99.90
24860;DHT22;12936;52.006;4.350;2024-03-17T14:58:46;15.40;99.90
24860;DHT22;12936;52.006;4.350;2024-03-17T15:01:13;15.30;99.90
24860;DHT22;12936;52.006;4.350;2024-03-17T15:03:42;15.30;99.90
24860;DHT22;12936;52.006;4.350;2024-03-17T15:06:11;15.30;99.90
24860;DHT22;12936;52.006;4.350;2024-03-17T15:08:40;15.20;99.90
24860;DHT22;12936;52.006;4.350;2024-03-17T15:11:08;15.20;99.90
24860;DHT22;12936;52.006;4.350;2024-03-17T15:13:35;15.20;99.90
24860;DHT22;12936;52.006;4.350;2024-03-17T15:16:03;15.10;99.90
24860;DHT22;12936;52.006;4.350;2024-03-17T15:18:31;15.10;99.90
24860;DHT22;12936;52.006;4.350;2024-03-17T15:21:01;15.10;99.90
24860;DHT22;12936;52.006;4.350;2024-03-17T15:23:31;15.00;99.90
24860;DHT22;12936;52.006;4.350;2024-03-17T15:26:01;15.00;99.90
24860;DHT22;12936;52.006;4.350;2024-03-17T15:28:34;15.00;99.90
24860;DHT22;12936;52.006;4.350;2024-03-17T15:31:04;15.00;99.90
24860;DHT22;12936;52.006;4.350;2024-03-17T15:33:30;15.00;99.90
24860;DHT22;12936;52.006;4.350;2024-03-17T15:36:02;14.90;99.90
24860;DHT22;12936;52.006;4.350;2024-03-17T15:38:30;14.90;99.90
24860;DHT22;12936;52.006;4.350;2024-03-17T15:40:59;14.90;99.90
24860;DHT22;12936;52.006;4.350;2024-03-17T15:43:26;14.80;99.90
24860;DHT22;12936;52.006;4.350;2024-03-17T15:45:57;14.80;99.90
24860;DHT22;12936;52.006;4.350;2024-03-17T15:48:25;14.80;99.90
24860;DHT22;12936;52.006;4.350;2024-03-17T15:50:55;14.80;99.90
24860;DHT22;12936;52.006;4.350;2024-03-17T15:53:26;14.70;99.90
24860;DHT22;12936;52.006;4.350;2024-03-17T15:55:54;14.80;99.90
24860;DHT22;12936;52.006;4.350;2024-03-17T15:58:21;14.80;99.90
24860;DHT22;12936;52.006;4.350;2024-03-17T16:00:49;14.70;99.90
24860;DHT22;12936;52.006;4.350;2024-03-17T16:03:19;14.70;99.90
24860;DHT22;12936;52.006;4.350;2024-03-17T16:05:51;14.70;99.90
24860;DHT22;12936;52.006;4.350;2024-03-17T16:08:20;14.70;99.90
24860;DHT22;12936;52.006;4.350;2024-03-17T16:10:53;14.70;99.90